METAR Formatted Surface Weather Observation
Issued by NWS

Home | Current Version | Previous Version | Text Only | Print | Product List | Glossary On
Versions: 1 2 3 4 5 6 7 8 9 10 11 12 13
000
SAUS43 KMQT 030456
MTRP59
METAR KP59 030451Z AUTO 23004KT 17/16 A2998 RMK AO1 SLP146 T01720156
402330150



USA.gov is the U.S. government's official web portal to all federal, state and local government web resources and services.